Time;durP1;ratioP1;P1;durP2;ratioP2;P2;SDS_P1;SDS_P2;PMS_P1;PMS_P2;Temp;Humidity;BMP_temperature;BMP_pressure;BME280_temperature;BME280_humidity;BME280_pressure;Samples;Min_cycle;Max_cycle;Signal;HPM_P1;HPM_P2
2022/04/07 00:00:19;;;;;;;2.90;2.60;;;;;;;12.82;58.41;98756.13;687498;28;1105;-78
2022/04/07 00:00:40;;;;;;;2.92;2.42;;;;;;;12.95;58.46;98755.97;689416;28;1107;-78
2022/04/07 00:01:00;;;;;;;3.92;2.60;;;;;;;12.91;58.35;98768.19;691530;28;815;-77
2022/04/07 00:01:21;;;;;;;3.70;2.60;;;;;;;12.83;58.34;98747.38;690181;28;1080;-78
2022/04/07 00:01:42;;;;;;;3.30;2.70;;;;;;;12.82;58.67;98745.66;690299;28;1138;-78
2022/04/07 00:02:03;;;;;;;3.15;2.70;;;;;;;12.88;58.26;98760.41;695693;28;1462;-77
2022/04/07 00:02:23;;;;;;;3.08;2.58;;;;;;;12.81;58.81;98764.00;695903;28;1041;-77
2022/04/07 00:02:44;;;;;;;2.63;2.40;;;;;;;12.82;58.45;98742.16;693088;28;1268;-77
2022/04/07 00:03:05;;;;;;;2.55;2.35;;;;;;;12.74;58.54;98748.38;690368;28;1302;-77
2022/04/07 00:03:25;;;;;;;2.85;2.40;;;;;;;12.74;58.69;98753.59;684944;28;1794;-77
2022/04/07 00:03:47;;;;;;;3.08;2.50;;;;;;;12.76;58.56;98740.50;693074;28;874;-77
2022/04/07 00:04:07;;;;;;;3.47;2.60;;;;;;;12.71;58.75;98745.81;691383;28;1507;-77
2022/04/07 00:04:29;;;;;;;3.10;2.80;;;;;;;12.67;58.53;98740.63;690281;28;1156;-77
2022/04/07 00:04:50;;;;;;;3.10;2.80;;;;;;;12.76;58.48;98750.97;687737;28;1946;-77
2022/04/07 00:05:11;;;;;;;3.10;2.80;;;;;;;12.76;58.71;98756.19;687659;28;918;-77
2022/04/07 00:05:31;;;;;;;2.80;2.60;;;;;;;12.69;58.63;98744.97;690327;28;1159;-77
2022/04/07 00:05:52;;;;;;;2.83;2.63;;;;;;;12.78;58.76;98748.34;687779;28;725;-78
2022/04/07 00:06:13;;;;;;;2.90;2.70;;;;;;;12.72;58.53;98736.22;690101;28;991;-77
2022/04/07 00:06:33;;;;;;;2.80;2.60;;;;;;;12.73;58.50;98736.16;687801;28;1384;-78
2022/04/07 00:06:54;;;;;;;2.70;2.50;;;;;;;12.82;58.43;98747.41;687709;28;828;-77
2022/04/07 00:07:14;;;;;;;2.80;2.60;;;;;;;12.71;58.47;98727.47;689914;28;1707;-78
2022/04/07 00:07:35;;;;;;;2.60;2.50;;;;;;;12.69;58.75;98738.84;688653;28;898;-77
2022/04/07 00:07:55;;;;;;;2.63;2.53;;;;;;;12.72;58.35;98721.34;687527;28;1230;-77
2022/04/07 00:08:16;;;;;;;2.95;2.75;;;;;;;12.75;58.59;98746.63;687477;28;1770;-78
2022/04/07 00:08:38;;;;;;;3.20;3.00;;;;;;;12.68;58.59;98750.22;684037;28;1227;-77
2022/04/07 00:09:01;;;;;;;3.10;2.90;;;;;;;12.76;58.64;98737.88;684842;28;1290;-77
2022/04/07 00:09:22;;;;;;;2.63;2.50;;;;;;;12.75;58.49;98725.69;682220;29;1028;-77
2022/04/07 00:09:42;;;;;;;2.70;2.60;;;;;;;12.66;58.59;98733.66;685019;28;1072;-77
2022/04/07 00:10:03;;;;;;;3.72;2.72;;;;;;;12.65;58.80;98737.19;689207;28;1142;-78
2022/04/07 00:10:42;;;;;;;4.28;2.90;;;;;;;12.65;58.73;98731.94;694867;28;1200;-77
2022/04/07 00:11:03;;;;;;;3.92;2.78;;;;;;;12.55;58.66;98723.34;695416;28;1902;-77
2022/04/07 00:11:24;;;;;;;5.50;2.90;;;;;;;12.53;58.85;98723.34;692824;28;1138;-77
2022/04/07 00:11:44;;;;;;;5.40;3.08;;;;;;;12.57;58.69;98734.66;693020;28;744;-78
2022/04/07 00:12:05;;;;;;;4.23;3.10;;;;;;;12.51;58.66;98735.59;684576;28;1542;-77
2022/04/07 00:12:26;;;;;;;3.25;3.05;;;;;;;12.51;58.37;98724.25;687396;28;1140;-77
2022/04/07 00:12:46;;;;;;;3.58;3.28;;;;;;;12.47;58.62;98733.88;685040;28;820;-78
2022/04/07 00:13:07;;;;;;;3.33;3.10;;;;;;;12.37;58.97;98727.94;685049;28;964;-80
2022/04/07 00:13:27;;;;;;;3.55;3.25;;;;;;;12.33;59.32;98731.44;687319;28;1406;-79
2022/04/07 00:13:48;;;;;;;3.30;3.10;;;;;;;12.27;59.36;98726.28;690375;28;854;-80
2022/04/07 00:14:08;;;;;;;3.40;3.20;;;;;;;12.18;59.62;98764.72;685792;28;1150;-79
2022/04/07 00:14:29;;;;;;;3.50;3.20;;;;;;;12.19;59.68;98732.47;690229;28;1515;-79
2022/04/07 00:14:52;;;;;;;3.60;3.30;;;;;;;12.20;59.56;98729.00;687811;28;843;-79
2022/04/07 00:15:12;;;;;;;3.45;3.15;;;;;;;12.22;59.78;98726.34;687580;28;1835;-79
2022/04/07 00:15:33;;;;;;;3.08;2.85;;;;;;;12.22;59.86;98728.13;691384;28;1191;-79
2022/04/07 00:16:06;;;;;;;3.70;2.80;;;;;;;12.19;60.02;98718.53;685007;28;1042;-79
2022/04/07 00:16:27;;;;;;;4.20;3.20;;;;;;;12.10;60.06;98736.97;687468;28;1633;-79
2022/04/07 00:16:47;;;;;;;3.60;3.30;;;;;;;12.12;60.08;98737.81;685374;28;1310;-79
2022/04/07 00:17:08;;;;;;;3.58;3.30;;;;;;;12.01;60.23;98746.63;690516;28;910;-78
2022/04/07 00:17:28;;;;;;;3.40;3.20;;;;;;;12.15;59.92;98732.53;692364;28;1141;-79
2022/04/07 00:17:49;;;;;;;3.37;3.17;;;;;;;12.10;59.97;98718.66;692314;28;1269;-79
2022/04/07 00:18:10;;;;;;;4.70;3.20;;;;;;;12.21;59.80;98735.06;692981;28;908;-79
2022/04/07 00:18:31;;;;;;;5.15;3.33;;;;;;;12.11;59.94;98723.00;691050;28;1129;-78
2022/04/07 00:18:52;;;;;;;5.57;3.20;;;;;;;12.16;60.17;98726.44;692771;28;756;-79
2022/04/07 00:19:12;;;;;;;3.40;3.10;;;;;;;12.20;60.14;98735.97;684638;28;1567;-79
2022/04/07 00:19:33;;;;;;;3.90;2.90;;;;;;;12.12;60.11;98730.84;685018;28;1159;-79
2022/04/07 00:19:54;;;;;;;3.20;2.90;;;;;;;12.21;60.29;98722.00;687624;28;1318;-79
2022/04/07 00:20:14;;;;;;;3.53;2.95;;;;;;;12.17;59.96;98731.63;687508;28;1287;-79
2022/04/07 00:20:35;;;;;;;3.20;2.90;;;;;;;12.27;60.00;98728.91;693011;28;1059;-79
2022/04/07 00:20:56;;;;;;;3.35;3.00;;;;;;;12.27;59.89;98749.81;693189;28;1259;-78
2022/04/07 00:21:24;;;;;;;3.20;2.90;;;;;;;12.18;59.93;98729.91;687647;28;1007;-80
2022/04/07 00:21:46;;;;;;;3.17;2.90;;;;;;;12.14;60.23;98723.84;690432;28;843;-79
2022/04/07 00:22:07;;;;;;;3.40;2.90;;;;;;;12.13;60.32;98729.94;690313;28;1278;-79
2022/04/07 00:22:28;;;;;;;3.50;3.00;;;;;;;12.18;60.40;98733.34;684938;28;1178;-79
2022/04/07 00:22:48;;;;;;;3.40;3.10;;;;;;;12.18;60.42;98701.13;690383;28;1355;-79
2022/04/07 00:23:09;;;;;;;3.30;3.10;;;;;;;12.16;60.52;98732.53;687575;28;990;-79
2022/04/07 00:23:29;;;;;;;3.50;3.20;;;;;;;12.20;60.55;98707.19;688356;28;1194;-78
2022/04/07 00:23:51;;;;;;;3.07;2.87;;;;;;;12.26;60.24;98735.03;693065;28;1268;-79
2022/04/07 00:24:12;;;;;;;3.35;2.95;;;;;;;12.31;60.62;98721.00;687387;28;1120;-79
2022/04/07 00:24:33;;;;;;;3.67;3.05;;;;;;;12.27;60.59;98735.00;691697;28;1102;-79
2022/04/07 00:24:53;;;;;;;3.80;3.30;;;;;;;12.26;60.44;98704.53;687724;28;848;-79
2022/04/07 00:25:14;;;;;;;3.60;3.30;;;;;;;12.30;60.13;98721.03;689773;28;992;-79
2022/04/07 00:25:34;;;;;;;3.38;3.10;;;;;;;12.32;60.06;98721.88;689054;28;1186;-78
2022/04/07 00:25:55;;;;;;;3.30;3.00;;;;;;;12.28;60.30;98707.97;691910;28;1226;-78
2022/04/07 00:26:16;;;;;;;3.25;2.95;;;;;;;12.37;59.85;98721.81;689261;28;1366;-79
2022/04/07 00:26:37;;;;;;;3.30;3.00;;;;;;;12.44;59.79;98728.72;692114;28;1111;-79
2022/04/07 00:26:57;;;;;;;3.20;2.90;;;;;;;12.35;59.99;98727.06;692313;28;756;-79
2022/04/07 00:27:18;;;;;;;4.20;3.30;;;;;;;12.38;59.79;98732.28;687371;28;1268;-79
2022/04/07 00:27:39;;;;;;;4.75;3.47;;;;;;;12.33;60.07;98724.50;689705;28;1269;-80
2022/04/07 00:28:00;;;;;;;5.05;3.42;;;;;;;12.33;60.39;98710.53;684884;28;839;-79
2022/04/07 00:28:20;;;;;;;3.60;3.10;;;;;;;12.24;60.14;98701.06;687430;28;1143;-78
2022/04/07 00:28:41;;;;;;;3.22;2.92;;;;;;;12.33;60.35;98721.88;687294;28;1349;-79
2022/04/07 00:29:01;;;;;;;3.30;3.00;;;;;;;12.39;60.37;98712.19;687642;28;1250;-79
2022/04/07 00:29:22;;;;;;;3.30;3.00;;;;;;;12.34;60.35;98707.03;690365;28;1209;-79
2022/04/07 00:29:43;;;;;;;3.92;3.00;;;;;;;12.33;60.29;98698.34;692355;28;1274;-79
2022/04/07 00:30:04;;;;;;;3.77;2.83;;;;;;;12.36;60.63;98709.63;690335;28;1115;-80
2022/04/07 00:30:24;;;;;;;5.20;2.80;;;;;;;12.33;60.47;98695.72;688219;28;1410;-79
2022/04/07 00:30:45;;;;;;;4.13;2.77;;;;;;;12.29;60.39;98716.69;679707;28;1184;-80
2022/04/07 00:31:05;;;;;;;4.50;2.90;;;;;;;12.31;60.40;98701.84;679590;29;1923;-79
2022/04/07 00:31:26;;;;;;;3.30;3.00;;;;;;;12.32;60.54;98717.53;685843;28;1240;-79
2022/04/07 00:31:54;;;;;;;3.40;3.10;;;;;;;12.39;60.37;98725.28;691730;28;1013;-79
2022/04/07 00:32:14;;;;;;;3.50;3.20;;;;;;;12.36;60.42;98718.34;691091;28;1500;-79
2022/04/07 00:32:40;;;;;;;3.50;3.20;;;;;;;12.32;60.23;98708.81;690817;28;1434;-78
2022/04/07 00:33:01;;;;;;;3.50;3.20;;;;;;;12.36;60.36;98723.59;690900;28;2038;-80
2022/04/07 00:33:21;;;;;;;3.50;3.20;;;;;;;12.39;60.29;98710.47;682844;29;887;-78
2022/04/07 00:33:42;;;;;;;3.97;3.00;;;;;;;12.43;60.23;98719.13;685427;28;1234;-78
2022/04/07 00:34:03;;;;;;;4.47;2.88;;;;;;;12.49;60.24;98726.91;685479;28;1706;-78
2022/04/07 00:34:23;;;;;;;4.80;2.43;;;;;;;12.49;60.27;98726.91;687266;28;1092;-78
2022/04/07 00:34:46;;;;;;;3.42;2.50;;;;;;;12.41;60.20;98708.69;685492;28;1182;-78
2022/04/07 00:35:08;;;;;;;2.67;2.47;;;;;;;12.50;60.14;98718.16;687008;28;1021;-77
2022/04/07 00:35:29;;;;;;;2.85;2.65;;;;;;;12.45;60.13;98699.94;683218;28;1581;-78
2022/04/07 00:35:49;;;;;;;4.10;2.70;;;;;;;12.51;60.38;98714.66;685718;28;808;-78
2022/04/07 00:36:10;;;;;;;6.30;2.80;;;;;;;12.51;60.41;98704.19;690642;28;957;-77
2022/04/07 00:36:32;;;;;;;6.43;2.75;;;;;;;12.59;60.11;98720.66;690641;28;1045;-78
2022/04/07 00:36:53;;;;;;;4.40;2.47;;;;;;;12.34;59.87;98692.22;690760;28;889;-78
2022/04/07 00:37:14;;;;;;;2.50;2.30;;;;;;;12.40;59.89;98708.72;686110;28;1591;-78
2022/04/07 00:37:35;;;;;;;2.70;2.50;;;;;;;12.53;59.85;98717.28;686949;28;1280;-78
2022/04/07 00:37:56;;;;;;;2.93;2.63;;;;;;;12.49;59.85;98724.28;691022;28;795;-77
2022/04/07 00:38:16;;;;;;;3.97;2.65;;;;;;;12.48;59.61;98722.56;689687;28;940;-78
2022/04/07 00:38:37;;;;;;;4.25;2.53;;;;;;;12.50;59.87;98714.69;689576;28;1446;-77
2022/04/07 00:38:58;;;;;;;3.70;2.50;;;;;;;12.53;59.56;98712.88;693383;28;1575;-78
2022/04/07 00:39:18;;;;;;;3.20;2.60;;;;;;;12.52;59.78;98713.78;690653;28;1180;-78
2022/04/07 00:39:39;;;;;;;2.85;2.55;;;;;;;12.52;60.07;98721.63;687447;28;1062;-77
2022/04/07 00:39:59;;;;;;;2.50;2.30;;;;;;;12.52;59.57;98692.84;689947;28;1567;-76
2022/04/07 00:40:20;;;;;;;4.05;2.40;;;;;;;12.50;59.67;98698.97;690553;28;1008;-78
2022/04/07 00:40:41;;;;;;;3.70;2.20;;;;;;;12.49;59.61;98708.59;693692;28;756;-78
2022/04/07 00:41:01;;;;;;;4.23;2.60;;;;;;;12.43;60.05;98700.81;694118;28;1693;-78
2022/04/07 00:41:22;;;;;;;2.83;2.63;;;;;;;12.45;59.97;98701.66;691805;28;1720;-78
2022/04/07 00:41:42;;;;;;;3.90;2.80;;;;;;;12.45;59.89;98709.50;693247;28;1511;-77
2022/04/07 00:42:04;;;;;;;5.33;2.67;;;;;;;12.41;59.72;98734.00;690977;28;1252;-78
2022/04/07 00:42:24;;;;;;;5.15;2.63;;;;;;;12.36;59.65;98727.94;688335;28;1972;-77
2022/04/07 00:42:47;;;;;;;3.47;2.75;;;;;;;12.43;59.76;98719.97;688187;28;1258;-77
2022/04/07 00:43:08;;;;;;;3.00;2.80;;;;;;;12.42;59.55;98714.78;682740;28;963;-77
2022/04/07 00:43:33;;;;;;;3.20;2.90;;;;;;;12.37;59.23;98693.06;683266;28;1413;-78
2022/04/07 00:43:54;;;;;;;3.45;2.80;;;;;;;12.28;59.64;98717.59;685608;28;834;-78
2022/04/07 00:44:14;;;;;;;4.03;2.83;;;;;;;12.21;59.63;98711.53;689227;28;1615;-77
2022/04/07 00:44:35;;;;;;;3.78;2.85;;;;;;;12.11;60.11;98684.63;690530;28;1713;-77
2022/04/07 00:44:55;;;;;;;3.90;2.70;;;;;;;12.18;60.06;98701.13;693443;28;1244;-77
2022/04/07 00:45:33;;;;;;;2.63;2.40;;;;;;;12.11;60.11;98710.78;695557;28;1662;-77
2022/04/07 00:45:54;;;;;;;2.60;2.40;;;;;;;12.07;60.40;98701.25;688251;28;1596;-79
2022/04/07 00:46:15;;;;;;;3.90;2.80;;;;;;;12.03;60.45;98683.88;690534;28;1464;-80
2022/04/07 00:46:37;;;;;;;3.50;2.63;;;;;;;12.00;60.76;98726.63;687981;28;1204;-79
2022/04/07 00:46:58;;;;;;;2.90;2.50;;;;;;;12.01;60.79;98720.50;688135;28;793;-80
2022/04/07 00:47:19;;;;;;;2.53;2.35;;;;;;;11.92;61.04;98690.09;687916;28;1773;-80
2022/04/07 00:47:42;;;;;;;2.70;2.50;;;;;;;11.97;60.91;98710.94;693490;28;1221;-80
2022/04/07 00:48:03;;;;;;;3.25;2.58;;;;;;;11.95;60.97;98723.16;693303;28;1271;-79
2022/04/07 00:48:23;;;;;;;3.17;2.47;;;;;;;11.91;61.62;98688.34;693498;28;889;-79
2022/04/07 00:48:44;;;;;;;3.60;2.57;;;;;;;11.95;61.31;98704.88;688186;28;812;-79
2022/04/07 00:49:06;;;;;;;2.90;2.70;;;;;;;12.04;61.40;98711.75;688928;28;969;-80
2022/04/07 00:49:26;;;;;;;3.13;2.85;;;;;;;11.98;61.32;98688.28;689776;28;1504;-79
2022/04/07 00:49:47;;;;;;;3.20;3.00;;;;;;;11.96;61.35;98706.59;693041;28;1327;-80
2022/04/07 00:50:10;;;;;;;3.00;2.80;;;;;;;12.05;61.60;98732.63;693537;28;953;-80
2022/04/07 00:50:30;;;;;;;3.05;2.85;;;;;;;12.04;61.23;98699.53;693504;28;1165;-79
2022/04/07 00:50:51;;;;;;;2.80;2.60;;;;;;;12.07;61.11;98690.81;688177;28;1601;-80
2022/04/07 00:51:12;;;;;;;3.00;2.80;;;;;;;12.17;61.10;98710.72;687981;28;1919;-79
2022/04/07 00:51:34;;;;;;;2.95;2.75;;;;;;;12.12;61.13;98682.91;690365;28;1207;-79
2022/04/07 00:51:55;;;;;;;3.00;2.80;;;;;;;12.16;61.11;98726.44;696581;28;889;-80
2022/04/07 00:52:18;;;;;;;2.90;2.70;;;;;;;12.16;61.31;98695.06;698933;28;990;-80
2022/04/07 00:52:41;;;;;;;2.88;2.67;;;;;;;12.11;61.12;98700.31;696467;28;1295;-79
2022/04/07 00:53:02;;;;;;;2.88;2.67;;;;;;;12.09;61.15;98685.56;690755;28;1346;-80
2022/04/07 00:53:24;;;;;;;2.75;2.55;;;;;;;12.14;61.03;98692.47;690703;28;887;-80
2022/04/07 00:53:45;;;;;;;2.60;2.40;;;;;;;12.17;61.33;98697.63;690895;28;1196;-80
2022/04/07 00:54:07;;;;;;;2.60;2.40;;;;;;;12.29;61.30;98701.84;690811;28;1084;-80
2022/04/07 00:54:30;;;;;;;2.88;2.60;;;;;;;12.16;61.15;98698.53;687822;28;1012;-80
2022/04/07 00:55:05;;;;;;;3.00;2.80;;;;;;;12.31;60.97;98694.84;685564;28;725;-80
2022/04/07 00:55:27;;;;;;;2.90;2.70;;;;;;;12.24;60.87;98689.72;687695;28;1122;-80
2022/04/07 00:55:50;;;;;;;3.00;2.80;;;;;;;12.28;60.98;98673.97;688163;28;1230;-79
2022/04/07 00:56:12;;;;;;;2.83;2.63;;;;;;;12.34;60.44;98694.84;687809;28;1330;-80
2022/04/07 00:56:35;;;;;;;2.95;2.72;;;;;;;12.33;60.23;98682.66;688061;28;1120;-80
2022/04/07 00:56:59;;;;;;;3.50;2.90;;;;;;;12.37;60.42;98690.44;685493;28;840;-80
2022/04/07 00:57:19;;;;;;;3.70;3.00;;;;;;;12.27;60.24;98681.84;690680;28;1134;-79
2022/04/07 00:57:40;;;;;;;3.20;2.75;;;;;;;12.41;60.59;98690.38;697589;28;1241;-80
2022/04/07 00:58:01;;;;;;;3.55;2.72;;;;;;;12.44;60.53;98692.09;693649;28;875;-80
2022/04/07 00:58:22;;;;;;;3.35;2.70;;;;;;;12.47;60.49;98686.81;688019;28;1024;-80
2022/04/07 00:58:45;;;;;;;3.70;2.70;;;;;;;12.42;60.24;98655.47;690755;28;1814;-80
2022/04/07 00:59:06;;;;;;;3.60;2.67;;;;;;;12.38;60.26;98687.81;690634;28;976;-80
2022/04/07 00:59:27;;;;;;;3.83;2.72;;;;;;;12.41;60.02;98682.53;693840;28;1234;-79
2022/04/07 00:59:49;;;;;;;4.82;2.80;;;;;;;12.49;60.08;98679.81;693020;28;885;-80
2022/04/07 01:00:10;;;;;;;4.65;2.72;;;;;;;12.48;60.02;98692.03;687932;28;1415;-80
2022/04/07 01:00:31;;;;;;;4.00;2.40;;;;;;;12.50;60.07;98686.78;692806;28;1221;-79
2022/04/07 01:00:52;;;;;;;2.88;2.50;;;;;;;12.54;59.84;98675.38;685985;28;1329;-80
2022/04/07 01:01:14;;;;;;;2.80;2.50;;;;;;;12.59;59.77;98676.19;692921;28;1147;-80
2022/04/07 01:01:35;;;;;;;2.80;2.60;;;;;;;12.58;59.80;98671.84;683012;28;1132;-80
2022/04/07 01:01:56;;;;;;;2.80;2.60;;;;;;;12.64;60.15;98662.19;682809;29;776;-80
2022/04/07 01:02:17;;;;;;;2.65;2.45;;;;;;;12.65;59.82;98682.22;688036;28;1042;-80
2022/04/07 01:02:38;;;;;;;2.38;2.17;;;;;;;12.52;59.93;98658.00;690787;28;1300;-80
2022/04/07 01:02:58;;;;;;;2.20;2.00;;;;;;;12.51;60.10;98667.59;690812;28;1193;-80
2022/04/07 01:03:19;;;;;;;2.13;2.03;;;;;;;12.63;60.08;98676.13;690754;28;983;-80
2022/04/07 01:03:39;;;;;;;2.38;2.20;;;;;;;12.58;60.17;98673.59;690827;28;1373;-80
2022/04/07 01:04:00;;;;;;;2.50;2.30;;;;;;;12.56;59.58;98664.91;693411;28;1374;-79
2022/04/07 01:04:22;;;;;;;2.70;2.50;;;;;;;12.55;60.18;98671.88;692006;28;1054;-81
2022/04/07 01:04:42;;;;;;;2.85;2.65;;;;;;;12.56;59.68;98671.00;690851;28;1318;-80
2022/04/07 01:05:05;;;;;;;2.92;2.65;;;;;;;12.55;59.82;98652.72;690454;28;1718;-80
2022/04/07 01:05:26;;;;;;;4.30;2.80;;;;;;;12.51;59.77;98661.47;690208;28;1749;-77
2022/04/07 01:05:46;;;;;;;4.10;2.53;;;;;;;12.53;59.96;98655.34;687740;28;760;-78
2022/04/07 01:06:07;;;;;;;3.67;2.60;;;;;;;12.45;59.95;98651.97;690541;28;1685;-80
2022/04/07 01:06:27;;;;;;;3.20;2.50;;;;;;;12.41;60.37;98652.91;695413;28;1223;-80
2022/04/07 01:06:48;;;;;;;3.57;2.60;;;;;;;12.50;60.08;98671.09;690835;28;1272;-79
2022/04/07 01:07:09;;;;;;;3.35;2.58;;;;;;;12.44;59.87;98658.97;692091;28;1583;-78
2022/04/07 01:07:32;;;;;;;2.67;2.42;;;;;;;12.47;59.83;98653.69;693039;28;1570;-78
2022/04/07 01:07:54;;;;;;;3.70;2.45;;;;;;;12.63;59.59;98657.81;688095;28;1889;-78
2022/04/07 01:08:23;;;;;;;4.20;2.45;;;;;;;12.59;60.03;98664.84;685265;28;1691;-78
2022/04/07 01:08:44;;;;;;;3.78;2.70;;;;;;;12.62;59.80;98667.44;683753;28;1445;-78
2022/04/07 01:09:05;;;;;;;2.90;2.70;;;;;;;12.59;59.83;98665.72;685102;28;1555;-78
2022/04/07 01:09:26;;;;;;;2.97;2.50;;;;;;;12.53;59.88;98644.88;690309;28;1138;-78
2022/04/07 01:09:46;;;;;;;3.50;2.47;;;;;;;12.65;59.74;98666.53;693073;28;851;-78
2022/04/07 01:10:08;;;;;;;3.20;2.45;;;;;;;12.65;59.67;98658.69;690846;28;1072;-78
2022/04/07 01:10:29;;;;;;;3.22;2.70;;;;;;;12.56;59.67;98644.84;688209;28;1468;-78
2022/04/07 01:10:51;;;;;;;2.97;2.65;;;;;;;12.64;59.67;98651.72;690654;28;1088;-78
2022/04/07 01:11:12;;;;;;;3.03;2.50;;;;;;;12.60;59.45;98656.13;685131;28;1871;-77
2022/04/07 01:11:34;;;;;;;2.80;2.43;;;;;;;12.61;59.38;98648.25;687923;28;1087;-77
2022/04/07 01:11:55;;;;;;;2.50;2.30;;;;;;;12.51;59.35;98636.19;690786;28;1253;-78
2022/04/07 01:12:16;;;;;;;2.83;2.30;;;;;;;12.59;59.77;98665.72;690196;28;1770;-78
2022/04/07 01:12:37;;;;;;;2.58;2.38;;;;;;;12.54;59.03;98664.91;688080;28;1628;-77
2022/04/07 01:12:58;;;;;;;2.78;2.55;;;;;;;12.60;59.45;98664.84;688001;28;879;-78
2022/04/07 01:13:19;;;;;;;3.67;2.60;;;;;;;12.44;59.30;98661.56;686285;28;1676;-78
2022/04/07 01:13:51;;;;;;;4.15;2.60;;;;;;;12.63;59.64;98649.97;687927;28;1247;-78
2022/04/07 01:14:11;;;;;;;3.53;2.58;;;;;;;12.67;59.05;98631.59;685176;28;1687;-77
2022/04/07 01:14:32;;;;;;;3.00;2.43;;;;;;;12.73;59.33;98649.81;686900;28;1163;-78
2022/04/07 01:15:01;;;;;;;3.00;2.33;;;;;;;12.74;59.24;98642.84;685404;28;1134;-78
2022/04/07 01:15:21;;;;;;;2.80;2.20;;;;;;;12.74;59.08;98669.00;687797;28;2005;-78
2022/04/07 01:15:42;;;;;;;2.20;2.10;;;;;;;12.69;59.00;98655.13;688584;28;1241;-78
2022/04/07 01:16:02;;;;;;;2.67;2.40;;;;;;;12.70;58.86;98678.66;688009;28;1081;-78
2022/04/07 01:16:27;;;;;;;2.70;2.50;;;;;;;12.72;59.16;98647.25;687901;28;1469;-78
2022/04/07 01:16:48;;;;;;;3.00;2.70;;;;;;;12.70;58.83;98643.75;688067;28;1990;-79
2022/04/07 01:17:10;;;;;;;2.63;2.42;;;;;;;12.75;58.61;98626.25;687962;28;1107;-78
2022/04/07 01:17:31;;;;;;;2.60;2.40;;;;;;;12.81;58.82;98635.75;688995;28;1146;-78
2022/04/07 01:17:52;;;;;;;2.50;2.30;;;;;;;12.77;58.58;98634.09;686541;28;1161;-78
2022/04/07 01:18:13;;;;;;;2.60;2.40;;;;;;;12.86;58.50;98637.41;687906;28;946;-78
2022/04/07 01:18:33;;;;;;;2.60;2.40;;;;;;;12.87;58.67;98644.38;691920;28;1216;-78
2022/04/07 01:18:55;;;;;;;2.67;2.47;;;;;;;12.82;58.39;98635.72;690555;28;1233;-78
2022/04/07 01:19:16;;;;;;;2.47;2.28;;;;;;;12.84;58.33;98654.88;688045;28;953;-78
2022/04/07 01:19:36;;;;;;;2.38;2.17;;;;;;;12.82;58.42;98613.91;687453;28;1198;-77
2022/04/07 01:19:58;;;;;;;2.30;2.10;;;;;;;12.79;58.43;98641.00;687265;28;1255;-78
2022/04/07 01:20:18;;;;;;;2.40;2.20;;;;;;;12.79;58.20;98622.69;687924;28;1439;-78
2022/04/07 01:20:39;;;;;;;2.40;2.20;;;;;;;12.80;58.13;98634.91;692544;28;1177;-78
2022/04/07 01:20:59;;;;;;;2.95;2.17;;;;;;;12.86;57.97;98637.41;693469;28;783;-79
2022/04/07 01:21:20;;;;;;;3.60;2.20;;;;;;;12.81;58.17;98628.78;693360;28;997;-79
2022/04/07 01:21:41;;;;;;;3.45;2.35;;;;;;;12.92;58.12;98635.59;693351;28;1349;-79
2022/04/07 01:22:02;;;;;;;2.70;2.50;;;;;;;12.96;58.07;98664.34;693063;28;1368;-78
2022/04/07 01:22:23;;;;;;;2.57;2.37;;;;;;;12.84;58.00;98628.72;690561;28;962;-78
2022/04/07 01:22:46;;;;;;;2.57;2.37;;;;;;;12.94;58.06;98642.56;690841;28;784;-78
2022/04/07 01:23:07;;;;;;;2.83;2.40;;;;;;;12.94;57.89;98657.38;690796;28;948;-78
2022/04/07 01:23:34;;;;;;;2.80;2.28;;;;;;;12.84;57.69;98613.00;691985;28;1220;-78
2022/04/07 01:24:26;;;;;;;2.60;2.10;;;;;;;12.85;57.75;98629.59;696225;28;839;-79
2022/04/07 01:24:48;;;;;;;2.50;2.30;;;;;;;12.79;57.61;98634.91;693141;28;1258;-78
2022/04/07 01:25:08;;;;;;;2.22;2.13;;;;;;;12.84;57.51;98623.47;693326;28;1081;-78
2022/04/07 01:25:29;;;;;;;2.47;2.27;;;;;;;12.92;57.67;98626.00;690035;28;1544;-78
2022/04/07 01:25:50;;;;;;;3.80;2.38;;;;;;;12.96;57.50;98642.53;685357;28;1224;-79
2022/04/07 01:26:10;;;;;;;3.88;2.13;;;;;;;12.93;57.81;98627.75;692181;28;1591;-78
2022/04/07 01:26:39;;;;;;;4.03;2.03;;;;;;;12.86;57.69;98633.94;691670;28;1188;-78
2022/04/07 01:27:00;;;;;;;2.28;2.03;;;;;;;12.89;57.70;98605.97;689486;28;865;-78
2022/04/07 01:27:20;;;;;;;2.22;2.10;;;;;;;12.86;57.58;98626.09;690506;28;1393;-78
2022/04/07 01:27:41;;;;;;;1.98;1.88;;;;;;;12.88;57.58;98619.94;685376;28;1127;-78
2022/04/07 01:28:02;;;;;;;1.83;1.73;;;;;;;12.89;57.30;98645.22;682697;28;1103;-78
2022/04/07 01:28:25;;;;;;;3.63;1.90;;;;;;;12.82;57.05;98633.13;687978;28;1122;-79
2022/04/07 01:28:47;;;;;;;3.80;1.80;;;;;;;12.89;57.42;98624.28;690657;28;799;-78
2022/04/07 01:29:15;;;;;;;3.90;1.80;;;;;;;12.92;57.33;98625.13;690576;28;964;-78
2022/04/07 01:29:37;;;;;;;2.00;1.90;;;;;;;12.86;57.30;98626.94;691167;28;1055;-78
2022/04/07 01:30:04;;;;;;;2.55;2.22;;;;;;;12.97;57.17;98645.13;685435;28;835;-79
2022/04/07 01:30:26;;;;;;;2.60;2.40;;;;;;;12.97;57.36;98644.28;690548;28;1462;-78
2022/04/07 01:30:46;;;;;;;2.30;2.10;;;;;;;12.92;56.92;98646.94;696119;28;857;-78
2022/04/07 01:31:07;;;;;;;2.27;2.17;;;;;;;12.96;57.26;98613.75;693228;28;1910;-78
2022/04/07 01:31:28;;;;;;;2.15;1.98;;;;;;;13.02;57.06;98639.81;693246;28;1219;-79
2022/04/07 01:31:48;;;;;;;2.17;1.98;;;;;;;13.01;56.89;98622.38;690751;28;787;-78
2022/04/07 01:32:22;;;;;;;2.00;1.80;;;;;;;13.05;56.77;98631.91;687942;28;1528;-79
2022/04/07 01:32:45;;;;;;;2.20;1.80;;;;;;;12.98;56.92;98609.34;688147;28;1336;-78
2022/04/07 01:33:06;;;;;;;2.42;1.90;;;;;;;12.93;56.51;98605.91;687938;28;1108;-78
2022/04/07 01:33:27;;;;;;;2.38;1.90;;;;;;;12.95;56.71;98620.72;690038;28;1060;-78
2022/04/07 01:33:48;;;;;;;2.35;1.92;;;;;;;13.02;56.41;98626.72;689439;28;1272;-78
2022/04/07 01:34:13;;;;;;;4.90;2.00;;;;;;;12.95;56.68;98640.78;685274;28;1219;-78
2022/04/07 01:34:33;;;;;;;5.00;2.10;;;;;;;12.98;56.62;98614.59;685904;28;1092;-78
2022/04/07 01:34:54;;;;;;;3.13;2.20;;;;;;;12.97;56.60;98618.09;687901;28;1275;-79
2022/04/07 01:35:16;;;;;;;2.65;2.00;;;;;;;12.83;56.29;98607.78;692626;28;1860;-79
2022/04/07 01:35:36;;;;;;;2.72;1.92;;;;;;;12.81;56.46;98594.75;690771;28;1075;-78
2022/04/07 01:36:04;;;;;;;2.45;2.25;;;;;;;12.85;56.45;98625.19;690896;28;752;-78
2022/04/07 01:36:27;;;;;;;2.40;2.30;;;;;;;12.89;56.22;98605.97;685126;28;1687;-78
2022/04/07 01:36:52;;;;;;;1.88;1.77;;;;;;;12.87;56.33;98602.50;686666;28;854;-79
2022/04/07 01:37:13;;;;;;;1.80;1.70;;;;;;;12.88;56.37;98616.44;689974;28;1782;-79
2022/04/07 01:37:35;;;;;;;2.28;1.90;;;;;;;12.83;56.53;98611.28;691317;28;1075;-79
2022/04/07 01:37:58;;;;;;;3.20;2.10;;;;;;;12.89;56.40;98644.34;690570;28;1373;-78
2022/04/07 01:38:19;;;;;;;2.47;2.00;;;;;;;12.85;56.20;98643.53;690507;28;1221;-79
2022/04/07 01:38:41;;;;;;;2.15;1.92;;;;;;;12.79;56.20;98643.63;690640;28;1849;-78
2022/04/07 01:39:03;;;;;;;2.20;2.00;;;;;;;12.78;56.33;98596.56;690740;28;1103;-79
2022/04/07 01:39:27;;;;;;;2.10;1.83;;;;;;;12.89;56.24;98616.44;692984;28;1440;-78
2022/04/07 01:39:50;;;;;;;2.58;2.08;;;;;;;12.85;56.12;98625.19;690257;28;848;-79
2022/04/07 01:40:14;;;;;;;2.75;2.13;;;;;;;12.72;55.89;98618.47;690627;28;1059;-78
2022/04/07 01:40:36;;;;;;;3.08;2.17;;;;;;;12.80;56.42;98636.63;685409;28;1112;-79
2022/04/07 01:40:57;;;;;;;3.80;1.90;;;;;;;12.79;56.38;98620.06;688001;28;1313;-77
2022/04/07 01:41:19;;;;;;;3.05;1.88;;;;;;;12.76;56.25;98614.88;687863;28;1339;-79
2022/04/07 01:41:43;;;;;;;2.58;1.83;;;;;;;12.91;56.17;98629.47;687912;28;1275;-79
2022/04/07 01:42:04;;;;;;;1.90;1.80;;;;;;;12.84;55.43;98607.78;688073;28;1133;-79
2022/04/07 01:42:25;;;;;;;2.05;1.90;;;;;;;12.80;55.57;98616.59;682664;28;1093;-78
2022/04/07 01:42:48;;;;;;;1.90;1.80;;;;;;;12.85;56.13;98630.44;690815;28;835;-78
2022/04/07 01:43:10;;;;;;;2.20;2.00;;;;;;;12.82;56.16;98608.69;686059;28;1118;-79
2022/04/07 01:43:32;;;;;;;2.40;2.10;;;;;;;12.91;55.87;98619.00;686987;28;1199;-79
2022/04/07 01:43:57;;;;;;;3.95;1.88;;;;;;;12.95;55.67;98602.41;691745;28;1274;-78
2022/04/07 01:44:19;;;;;;;4.40;1.77;;;;;;;13.00;55.47;98597.09;696038;28;1245;-78
2022/04/07 01:44:46;;;;;;;4.10;1.70;;;;;;;12.97;55.69;98608.47;693836;28;1224;-78
2022/04/07 01:45:07;;;;;;;2.00;1.60;;;;;;;13.02;55.44;98611.88;696219;28;1080;-79
2022/04/07 01:45:30;;;;;;;2.50;1.75;;;;;;;13.04;55.02;98603.13;695822;28;1317;-78